Terminal Aerodrome Forecast
Issued by NWS

Home | Current Version | Previous Version | Text Only | Print | Product List | Glossary On
Versions: 1 2 3 4 5 6 7 8 9 10 11 12 13 14 15 16 17 18 19 20 21
441
FTUS46 KMTR 241720
TAFSTS
TAF
KSTS 241720Z 2418/2518 00000KT P6SM FEW015
     FM241900 21008KT P6SM FEW050
     FM242100 21011KT P6SM FEW050
     FM250200 16007KT P6SM FEW030 FEW080
     FM250500 VRB03KT P6SM BKN012
     FM251100 00000KT 2SM BR OVC009
     FM251700 VRB03KT P6SM OVC015=

USA.gov is the U.S. government's official web portal to all federal, state and local government web resources and services.